Time;durP1;ratioP1;P1;durP2;ratioP2;P2;SDS_P1;SDS_P2;PMS_P1;PMS_P2;Temp;Humidity;BMP_temperature;BMP_pressure;BME280_temperature;BME280_humidity;BME280_pressure;Samples;Min_cycle;Max_cycle;Signal;HPM_P1;HPM_P2
2024/04/20 00:00:48;;;;;;;0.20;0.20;;;;;;;;;;5376305;26;85102;-49
2024/04/20 00:03:13;;;;;;;1.47;0.93;;;;;;;;;;5379662;26;84568;-48
2024/04/20 00:05:39;;;;;;;0.90;0.50;;;;;;;;;;5373187;26;85228;-47
2024/04/20 00:08:04;;;;;;;1.50;0.50;;;;;;;;;;5376355;26;85748;-52
2024/04/20 00:10:29;;;;;;;0.47;0.30;;;;;;;;;;5373470;26;89527;-49
2024/04/20 00:12:54;;;;;;;0.83;0.40;;;;;;;;;;5375487;25;85457;-49
2024/04/20 00:15:20;;;;;;;2.20;0.50;;;;;;;;;;5372900;26;88351;-49
2024/04/20 00:17:45;;;;;;;1.17;0.27;;;;;;;;;;5373642;26;85890;-49
2024/04/20 00:20:10;;;;;;;1.05;0.40;;;;;;;;;;5373991;25;85339;-50
2024/04/20 00:22:35;;;;;;;0.70;0.70;;;;;;;;;;5373495;26;85160;-47
2024/04/20 00:25:01;;;;;;;2.40;0.67;;;;;;;;;;5376596;25;86486;-50
2024/04/20 00:27:26;;;;;;;0.23;0.20;;;;;;;;;;5371317;26;85514;-46
2024/04/20 00:29:52;;;;;;;0.30;0.20;;;;;;;;;;5374210;26;86260;-47
2024/04/20 00:32:18;;;;;;;1.55;0.60;;;;;;;;;;5370785;26;86476;-50
2024/04/20 00:34:43;;;;;;;1.30;0.60;;;;;;;;;;5371457;26;86361;-50
2024/04/20 00:37:09;;;;;;;0.20;0.20;;;;;;;;;;5376056;26;88475;-50
2024/04/20 00:39:34;;;;;;;0.38;0.17;;;;;;;;;;5372395;26;85961;-48
2024/04/20 00:41:59;;;;;;;3.33;0.60;;;;;;;;;;5373050;26;86666;-49
2024/04/20 00:44:24;;;;;;;0.97;0.27;;;;;;;;;;5428152;25;88377;-51
2024/04/20 00:46:54;;;;;;;0.20;0.10;;;;;;;;;;5383603;26;85201;-50
2024/04/20 00:49:20;;;;;;;0.50;0.30;;;;;;;;;;5376700;26;87136;-49
2024/04/20 00:51:45;;;;;;;1.37;0.40;;;;;;;;;;5376767;26;86118;-49
2024/04/20 00:54:10;;;;;;;3.10;0.33;;;;;;;;;;5380689;26;88435;-49
2024/04/20 00:56:36;;;;;;;0.40;0.30;;;;;;;;;;5439830;25;87502;-49
2024/04/20 00:59:01;;;;;;;1.90;0.50;;;;;;;;;;5378460;26;87575;-48
2024/04/20 01:01:27;;;;;;;2.30;0.53;;;;;;;;;;5383318;26;86641;-48
2024/04/20 01:03:53;;;;;;;0.83;0.23;;;;;;;;;;5379173;26;85737;-49
2024/04/20 01:06:18;;;;;;;0.40;0.30;;;;;;;;;;5378298;25;85750;-48
2024/04/20 01:08:44;;;;;;;0.20;0.20;;;;;;;;;;5374322;26;86925;-49
2024/04/20 01:11:11;;;;;;;5.70;0.30;;;;;;;;;;5371904;26;86775;-48
2024/04/20 01:13:36;;;;;;;0.65;0.65;;;;;;;;;;5375387;26;86002;-45
2024/04/20 01:16:01;;;;;;;1.07;0.40;;;;;;;;;;5369278;26;86165;-49
2024/04/20 01:18:27;;;;;;;0.80;0.40;;;;;;;;;;5379625;26;85016;-51
2024/04/20 01:20:52;;;;;;;2.30;0.40;;;;;;;;;;5376323;26;85781;-53
2024/04/20 01:23:18;;;;;;;0.55;0.30;;;;;;;;;;5371373;26;86693;-49
2024/04/20 01:25:45;;;;;;;0.30;0.30;;;;;;;;;;5368793;26;85847;-52
2024/04/20 01:28:10;;;;;;;3.03;0.22;;;;;;;;;;5372555;26;87206;-50
2024/04/20 01:30:35;;;;;;;2.10;0.30;;;;;;;;;;5379280;26;87001;-49
2024/04/20 01:33:01;;;;;;;0.80;0.40;;;;;;;;;;5376896;26;87284;-47
2024/04/20 01:35:28;;;;;;;1.50;0.43;;;;;;;;;;5372164;26;87741;-50
2024/04/20 01:37:54;;;;;;;1.33;0.43;;;;;;;;;;5376371;25;85228;-52
2024/04/20 01:40:19;;;;;;;0.23;0.23;;;;;;;;;;5375447;26;88315;-51
2024/04/20 01:42:44;;;;;;;0.90;0.30;;;;;;;;;;5377734;26;85768;-50
2024/04/20 01:45:09;;;;;;;1.37;0.30;;;;;;;;;;5371717;26;85457;-52
2024/04/20 01:47:35;;;;;;;0.37;0.37;;;;;;;;;;5370498;26;86240;-50
2024/04/20 01:50:00;;;;;;;0.50;0.30;;;;;;;;;;5375689;26;85769;-51
2024/04/20 01:52:25;;;;;;;0.10;0.10;;;;;;;;;;5382673;26;87043;-46
2024/04/20 01:54:50;;;;;;;0.80;0.20;;;;;;;;;;5373329;25;87039;-51
2024/04/20 01:57:16;;;;;;;1.17;0.40;;;;;;;;;;5378616;26;85786;-50
2024/04/20 01:59:41;;;;;;;0.82;0.43;;;;;;;;;;5374657;26;87443;-48
2024/04/20 02:02:06;;;;;;;1.40;0.40;;;;;;;;;;5366762;26;85628;-46
2024/04/20 02:04:31;;;;;;;0.30;0.10;;;;;;;;;;5378466;25;85012;-55
2024/04/20 02:06:56;;;;;;;0.47;0.37;;;;;;;;;;5378969;26;86535;-49
2024/04/20 02:09:22;;;;;;;0.83;0.40;;;;;;;;;;5373390;26;86192;-48
2024/04/20 02:11:47;;;;;;;0.30;0.30;;;;;;;;;;5370637;26;86127;-49
2024/04/20 02:14:12;;;;;;;1.20;0.50;;;;;;;;;;5378654;26;86731;-51
2024/04/20 02:16:38;;;;;;;1.00;0.43;;;;;;;;;;5375689;26;85434;-47
2024/04/20 02:19:03;;;;;;;0.13;0.10;;;;;;;;;;5386812;26;86784;-53
2024/04/20 02:21:28;;;;;;;0.40;0.40;;;;;;;;;;5332876;26;87332;-47
2024/04/20 02:23:53;;;;;;;1.43;0.33;;;;;;;;;;5435297;25;85357;-47
2024/04/20 02:26:18;;;;;;;0.60;0.20;;;;;;;;;;5371779;26;85819;-51
2024/04/20 02:28:44;;;;;;;2.70;0.30;;;;;;;;;;5378838;26;85814;-47
2024/04/20 02:31:09;;;;;;;0.17;0.17;;;;;;;;;;5373994;26;85299;-49
2024/04/20 02:33:34;;;;;;;0.73;0.20;;;;;;;;;;5382472;25;86748;-52
2024/04/20 02:36:00;;;;;;;0.40;0.30;;;;;;;;;;5383027;26;86058;-47
2024/04/20 02:38:25;;;;;;;0.30;0.20;;;;;;;;;;5380974;26;86576;-51
2024/04/20 02:40:52;;;;;;;0.90;0.30;;;;;;;;;;5381179;26;86936;-48
2024/04/20 02:43:17;;;;;;;0.03;0.03;;;;;;;;;;5437617;25;85723;-50
2024/04/20 02:45:42;;;;;;;0.50;0.40;;;;;;;;;;5370719;26;85444;-50
2024/04/20 02:48:07;;;;;;;0.77;0.37;;;;;;;;;;5375500;26;85541;-47
2024/04/20 02:50:33;;;;;;;0.30;0.22;;;;;;;;;;5435482;25;85874;-46
2024/04/20 02:52:58;;;;;;;0.10;0.10;;;;;;;;;;5375876;26;86892;-48
2024/04/20 02:55:23;;;;;;;0.10;0.10;;;;;;;;;;5378602;26;85707;-45
2024/04/20 02:57:48;;;;;;;1.80;0.50;;;;;;;;;;5433409;25;87753;-46
2024/04/20 03:00:14;;;;;;;0.30;0.30;;;;;;;;;;5378769;26;86978;-49
2024/04/20 03:02:39;;;;;;;0.20;0.10;;;;;;;;;;5376565;25;85890;-49
2024/04/20 03:05:05;;;;;;;0.60;0.40;;;;;;;;;;5385180;26;87024;-48
2024/04/20 03:07:30;;;;;;;1.00;0.30;;;;;;;;;;5377577;26;86667;-52
2024/04/20 03:09:55;;;;;;;1.20;0.20;;;;;;;;;;5376900;26;85606;-48
2024/04/20 03:12:21;;;;;;;0.80;0.40;;;;;;;;;;5376865;26;87282;-55
2024/04/20 03:14:49;;;;;;;0.40;0.30;;;;;;;;;;5373809;26;86228;-51
2024/04/20 03:17:15;;;;;;;0.05;0.05;;;;;;;;;;5378030;26;84391;-49
2024/04/20 03:19:40;;;;;;;0.63;0.20;;;;;;;;;;5427825;25;86765;-49
2024/04/20 03:22:05;;;;;;;0.00;0.00;;;;;;;;;;5377843;26;85742;-48
2024/04/20 03:24:30;;;;;;;0.40;0.40;;;;;;;;;;5376137;25;87017;-53
2024/04/20 03:26:56;;;;;;;0.83;0.47;;;;;;;;;;5379071;26;85646;-47
2024/04/20 03:29:21;;;;;;;2.20;0.23;;;;;;;;;;5379421;26;85266;-47
2024/04/20 03:31:48;;;;;;;0.10;0.10;;;;;;;;;;5375722;26;87597;-50
2024/04/20 03:34:13;;;;;;;0.47;0.27;;;;;;;;;;5379662;26;86182;-50
2024/04/20 03:36:38;;;;;;;0.43;0.23;;;;;;;;;;5376778;26;85366;-49
2024/04/20 03:39:10;;;;;;;0.00;0.00;;;;;;;;;;5430954;25;88673;-49
2024/04/20 03:41:36;;;;;;;0.35;0.30;;;;;;;;;;5371129;26;84932;-49
2024/04/20 03:44:01;;;;;;;0.30;0.20;;;;;;;;;;5374083;26;85617;-46
2024/04/20 03:46:26;;;;;;;0.37;0.20;;;;;;;;;;5372741;25;87181;-50
2024/04/20 03:48:51;;;;;;;0.03;0.03;;;;;;;;;;5373824;26;88039;-53
2024/04/20 03:51:17;;;;;;;0.70;0.20;;;;;;;;;;5377015;26;85507;-50
2024/04/20 03:53:42;;;;;;;0.40;0.20;;;;;;;;;;5378635;26;86166;-49
2024/04/20 03:56:07;;;;;;;0.47;0.43;;;;;;;;;;5371047;25;86607;-50
2024/04/20 03:58:32;;;;;;;0.20;0.20;;;;;;;;;;5376800;26;86818;-47
2024/04/20 04:00:58;;;;;;;2.70;0.20;;;;;;;;;;5379842;25;85490;-52
2024/04/20 04:03:24;;;;;;;3.97;0.37;;;;;;;;;;5377686;26;85295;-52
2024/04/20 04:05:49;;;;;;;0.50;0.38;;;;;;;;;;5380085;26;85378;-48
2024/04/20 04:08:15;;;;;;;0.30;0.17;;;;;;;;;;5381767;25;85848;-50
2024/04/20 04:10:40;;;;;;;0.37;0.27;;;;;;;;;;5378305;26;85576;-49
2024/04/20 04:13:05;;;;;;;0.70;0.28;;;;;;;;;;5377234;26;86745;-48
2024/04/20 04:15:31;;;;;;;0.50;0.10;;;;;;;;;;5436601;25;85389;-50
2024/04/20 04:17:56;;;;;;;0.20;0.20;;;;;;;;;;5370986;26;86649;-52
2024/04/20 04:20:21;;;;;;;1.35;0.22;;;;;;;;;;5374356;26;85906;-48
2024/04/20 04:22:47;;;;;;;0.10;0.10;;;;;;;;;;5373050;26;86587;-49
2024/04/20 04:25:12;;;;;;;0.10;0.10;;;;;;;;;;5370276;25;85866;-51
2024/04/20 04:27:37;;;;;;;0.30;0.20;;;;;;;;;;5433599;25;85380;-47
2024/04/20 04:30:02;;;;;;;0.30;0.30;;;;;;;;;;5383423;25;87237;-46
2024/04/20 04:32:28;;;;;;;0.30;0.20;;;;;;;;;;5375354;26;87289;-50
2024/04/20 04:34:53;;;;;;;0.20;0.10;;;;;;;;;;5430389;25;87866;-49
2024/04/20 04:37:18;;;;;;;0.37;0.20;;;;;;;;;;5369290;26;86718;-51
2024/04/20 04:39:43;;;;;;;0.10;0.10;;;;;;;;;;5372055;26;87920;-48
2024/04/20 04:42:09;;;;;;;2.20;0.20;;;;;;;;;;5379559;26;85016;-50
2024/04/20 04:44:37;;;;;;;0.70;0.30;;;;;;;;;;5369838;26;85824;-51
2024/04/20 04:47:02;;;;;;;0.20;0.10;;;;;;;;;;5369683;26;85042;-49
2024/04/20 04:49:27;;;;;;;1.10;0.30;;;;;;;;;;5372439;25;87514;-51
2024/04/20 04:51:52;;;;;;;0.50;0.30;;;;;;;;;;5378635;26;85582;-48
2024/04/20 04:54:18;;;;;;;0.40;0.17;;;;;;;;;;5371746;26;84739;-48
2024/04/20 04:56:43;;;;;;;1.90;0.10;;;;;;;;;;5380919;26;86664;-50
2024/04/20 04:59:08;;;;;;;0.70;0.20;;;;;;;;;;5372941;26;86245;-51
2024/04/20 05:01:34;;;;;;;0.40;0.17;;;;;;;;;;5380602;26;86906;-49
2024/04/20 05:03:59;;;;;;;0.20;0.20;;;;;;;;;;5382400;26;86360;-49
2024/04/20 05:06:26;;;;;;;0.70;0.50;;;;;;;;;;5378367;26;86530;-49
2024/04/20 05:08:51;;;;;;;0.13;0.13;;;;;;;;;;5375516;26;86185;-48
2024/04/20 05:11:17;;;;;;;1.10;0.40;;;;;;;;;;5397067;25;87242;-51
2024/04/20 05:13:42;;;;;;;0.70;0.30;;;;;;;;;;5388499;26;87037;-50
2024/04/20 05:16:07;;;;;;;0.60;0.20;;;;;;;;;;5440341;25;87185;-49
2024/04/20 05:18:32;;;;;;;0.20;0.20;;;;;;;;;;5387476;26;86698;-64
2024/04/20 05:20:58;;;;;;;7.00;0.40;;;;;;;;;;5382149;26;85982;-54
2024/04/20 05:23:23;;;;;;;0.20;0.20;;;;;;;;;;5381911;25;86928;-54
2024/04/20 05:25:49;;;;;;;0.10;0.10;;;;;;;;;;5386723;26;86762;-54
2024/04/20 05:28:14;;;;;;;0.20;0.20;;;;;;;;;;5379482;25;86355;-50
2024/04/20 05:30:39;;;;;;;0.53;0.30;;;;;;;;;;5388712;25;86591;-48
2024/04/20 05:33:05;;;;;;;1.20;0.67;;;;;;;;;;5388170;26;85977;-54
2024/04/20 05:35:30;;;;;;;0.90;0.40;;;;;;;;;;5442442;25;88180;-53
2024/04/20 05:37:55;;;;;;;2.30;0.50;;;;;;;;;;5388946;26;86600;-51
2024/04/20 05:40:21;;;;;;;3.00;0.30;;;;;;;;;;5386300;25;85282;-50
2024/04/20 05:42:46;;;;;;;0.57;0.38;;;;;;;;;;5379745;26;85559;-48
2024/04/20 05:45:16;;;;;;;0.60;0.20;;;;;;;;;;5387554;25;87122;-51
2024/04/20 05:47:41;;;;;;;1.02;0.80;;;;;;;;;;5368467;26;85491;-51
2024/04/20 05:50:06;;;;;;;0.93;0.73;;;;;;;;;;5378977;25;86847;-50
2024/04/20 05:52:32;;;;;;;0.70;0.40;;;;;;;;;;5385415;25;85747;-51
2024/04/20 05:54:57;;;;;;;6.77;0.83;;;;;;;;;;5371919;26;85587;-51
2024/04/20 05:57:22;;;;;;;1.13;0.50;;;;;;;;;;5375795;26;86059;-49
2024/04/20 05:59:47;;;;;;;1.30;0.55;;;;;;;;;;5384003;26;85865;-54
2024/04/20 06:02:13;;;;;;;0.20;0.20;;;;;;;;;;5392573;26;86967;-52
2024/04/20 06:04:39;;;;;;;8.50;0.60;;;;;;;;;;5380967;26;86924;-53
2024/04/20 06:07:05;;;;;;;0.20;0.20;;;;;;;;;;5383435;26;84445;-50
2024/04/20 06:09:30;;;;;;;1.37;0.33;;;;;;;;;;5389605;26;85666;-52
2024/04/20 06:11:56;;;;;;;0.63;0.50;;;;;;;;;;5390495;26;86445;-48
2024/04/20 06:14:21;;;;;;;6.10;0.60;;;;;;;;;;5364589;25;86122;-54
2024/04/20 06:16:46;;;;;;;2.78;0.68;;;;;;;;;;5383216;26;86281;-58
2024/04/20 06:19:11;;;;;;;1.50;0.57;;;;;;;;;;5387101;25;85387;-52
2024/04/20 06:21:37;;;;;;;6.20;0.77;;;;;;;;;;5378198;25;85257;-53
2024/04/20 06:24:03;;;;;;;4.80;0.70;;;;;;;;;;5387163;25;85519;-54
2024/04/20 06:26:30;;;;;;;4.38;0.88;;;;;;;;;;5405376;25;85330;-52
2024/04/20 06:28:55;;;;;;;1.73;0.47;;;;;;;;;;5388816;25;87215;-56
2024/04/20 06:31:22;;;;;;;1.00;0.50;;;;;;;;;;5437727;25;85065;-48
2024/04/20 06:33:47;;;;;;;10.50;1.73;;;;;;;;;;5366293;26;86238;-56
2024/04/20 06:36:13;;;;;;;3.42;0.73;;;;;;;;;;5377044;25;85794;-51
2024/04/20 06:38:39;;;;;;;1.20;0.60;;;;;;;;;;5384114;26;86715;-53
2024/04/20 06:41:04;;;;;;;8.73;0.80;;;;;;;;;;5381276;25;87915;-52
2024/04/20 06:43:30;;;;;;;0.70;0.40;;;;;;;;;;5391876;26;85628;-53
2024/04/20 06:45:55;;;;;;;0.80;0.73;;;;;;;;;;5383244;26;85998;-53
2024/04/20 06:48:20;;;;;;;1.07;0.70;;;;;;;;;;5390487;25;85345;-52
2024/04/20 06:50:46;;;;;;;0.53;0.53;;;;;;;;;;5440836;25;85661;-53
2024/04/20 06:53:12;;;;;;;1.00;0.60;;;;;;;;;;5378520;26;85678;-50
2024/04/20 06:55:38;;;;;;;2.30;0.70;;;;;;;;;;5377730;26;86487;-53
2024/04/20 06:58:04;;;;;;;3.40;0.65;;;;;;;;;;5379251;26;85561;-51
2024/04/20 07:00:30;;;;;;;1.60;0.80;;;;;;;;;;5380232;26;85183;-54
2024/04/20 07:02:55;;;;;;;2.35;0.90;;;;;;;;;;5378251;26;86774;-52
2024/04/20 07:05:21;;;;;;;1.90;1.17;;;;;;;;;;5369832;26;85210;-52
2024/04/20 07:07:50;;;;;;;1.73;1.10;;;;;;;;;;5375269;26;86575;-53
2024/04/20 07:10:15;;;;;;;5.23;1.23;;;;;;;;;;5383650;26;85496;-54
2024/04/20 07:12:40;;;;;;;0.90;0.90;;;;;;;;;;5378402;26;85816;-54
2024/04/20 07:15:06;;;;;;;1.80;1.10;;;;;;;;;;5384010;25;85885;-53
2024/04/20 07:17:34;;;;;;;2.40;1.15;;;;;;;;;;5381339;26;85769;-56
2024/04/20 07:20:01;;;;;;;1.08;0.68;;;;;;;;;;5379068;26;85501;-53
2024/04/20 07:22:26;;;;;;;1.17;0.93;;;;;;;;;;5364232;26;86503;-49
2024/04/20 07:24:52;;;;;;;1.80;1.00;;;;;;;;;;5372743;26;89089;-53
2024/04/20 07:27:18;;;;;;;2.33;1.20;;;;;;;;;;5375633;26;86780;-52
2024/04/20 07:29:44;;;;;;;1.20;0.90;;;;;;;;;;5376641;26;86729;-54
2024/04/20 07:32:09;;;;;;;1.55;1.00;;;;;;;;;;5385412;25;85590;-52
2024/04/20 07:34:35;;;;;;;1.50;0.83;;;;;;;;;;5374844;25;85659;-53
2024/04/20 07:37:00;;;;;;;3.03;0.87;;;;;;;;;;5424843;25;85191;-56
2024/04/20 07:39:26;;;;;;;4.23;1.30;;;;;;;;;;5387329;25;86892;-51
2024/04/20 07:41:53;;;;;;;0.80;0.80;;;;;;;;;;5380380;26;85194;-55
2024/04/20 07:44:19;;;;;;;3.30;0.90;;;;;;;;;;5394991;25;84644;-54
2024/04/20 07:46:55;;;;;;;1.67;1.05;;;;;;;;;;5387563;25;85041;-54
2024/04/20 07:49:22;;;;;;;1.20;0.88;;;;;;;;;;5371830;26;85739;-54
2024/04/20 07:51:48;;;;;;;1.08;0.73;;;;;;;;;;5387025;25;86219;-55
2024/04/20 07:54:14;;;;;;;1.70;0.90;;;;;;;;;;5373338;26;89892;-51
2024/04/20 07:56:40;;;;;;;2.33;0.77;;;;;;;;;;5381646;25;85763;-52
2024/04/20 07:59:05;;;;;;;1.37;0.80;;;;;;;;;;5391575;25;86677;-53
2024/04/20 08:01:30;;;;;;;1.10;0.50;;;;;;;;;;5364925;26;85841;-52
2024/04/20 08:03:57;;;;;;;2.20;0.82;;;;;;;;;;5386090;26;85959;-51
2024/04/20 08:06:23;;;;;;;0.60;0.60;;;;;;;;;;5378303;26;85374;-50
2024/04/20 08:08:49;;;;;;;4.80;1.13;;;;;;;;;;5382174;25;88036;-54
2024/04/20 08:11:15;;;;;;;1.50;0.80;;;;;;;;;;5378047;26;85185;-53
2024/04/20 08:13:40;;;;;;;1.05;0.73;;;;;;;;;;5381358;26;86821;-54
2024/04/20 08:16:06;;;;;;;1.27;0.73;;;;;;;;;;5369725;26;87731;-55
2024/04/20 08:18:31;;;;;;;3.58;0.82;;;;;;;;;;5383516;25;91255;-52
2024/04/20 08:20:57;;;;;;;2.00;0.77;;;;;;;;;;5390538;26;85744;-52
2024/04/20 08:23:23;;;;;;;0.75;0.57;;;;;;;;;;5379667;26;85066;-56
2024/04/20 08:25:50;;;;;;;1.30;0.77;;;;;;;;;;5381277;26;85512;-54
2024/04/20 08:28:18;;;;;;;3.05;0.80;;;;;;;;;;5377321;26;88428;-54
2024/04/20 08:30:43;;;;;;;7.53;0.95;;;;;;;;;;5386068;26;85139;-54
2024/04/20 08:33:08;;;;;;;2.53;0.90;;;;;;;;;;5382096;26;85323;-52
2024/04/20 08:35:33;;;;;;;0.93;0.73;;;;;;;;;;5379042;26;87165;-49
2024/04/20 08:37:58;;;;;;;3.40;1.00;;;;;;;;;;5388443;26;85680;-47
2024/04/20 08:40:25;;;;;;;2.63;1.37;;;;;;;;;;5382498;26;87072;-51
2024/04/20 08:42:50;;;;;;;3.80;1.00;;;;;;;;;;5377501;26;85139;-48
2024/04/20 08:45:19;;;;;;;1.80;0.70;;;;;;;;;;5399157;26;89024;-51
2024/04/20 08:47:45;;;;;;;1.30;0.90;;;;;;;;;;5376546;26;85931;-54
2024/04/20 08:50:11;;;;;;;4.32;0.98;;;;;;;;;;5394305;25;85727;-51
2024/04/20 08:52:37;;;;;;;0.85;0.70;;;;;;;;;;5368643;26;86738;-53
2024/04/20 08:55:05;;;;;;;1.50;0.77;;;;;;;;;;5394024;25;85855;-53
2024/04/20 08:57:35;;;;;;;1.42;1.10;;;;;;;;;;5371091;26;84904;-54
2024/04/20 09:00:01;;;;;;;1.15;0.80;;;;;;;;;;5377366;25;85667;-50
2024/04/20 09:02:26;;;;;;;1.00;0.80;;;;;;;;;;5386714;26;85129;-50
2024/04/20 09:04:56;;;;;;;0.70;0.70;;;;;;;;;;5389621;26;87265;-54
2024/04/20 09:07:23;;;;;;;2.92;0.65;;;;;;;;;;5376412;26;85617;-53
2024/04/20 09:09:49;;;;;;;1.10;0.95;;;;;;;;;;5381345;26;86260;-52
2024/04/20 09:12:14;;;;;;;2.80;1.00;;;;;;;;;;5382618;26;85305;-56
2024/04/20 09:14:39;;;;;;;3.97;0.67;;;;;;;;;;5376967;26;87624;-50
2024/04/20 09:17:04;;;;;;;1.27;1.03;;;;;;;;;;5380888;26;85387;-53
2024/04/20 09:19:30;;;;;;;1.00;0.50;;;;;;;;;;5370589;26;87036;-51
2024/04/20 09:22:04;;;;;;;1.30;1.10;;;;;;;;;;5381782;26;86197;-50
2024/04/20 09:24:30;;;;;;;2.08;0.70;;;;;;;;;;5379512;25;85521;-49
2024/04/20 09:26:57;;;;;;;4.17;0.83;;;;;;;;;;5379349;26;86092;-54
2024/04/20 09:29:23;;;;;;;0.95;0.55;;;;;;;;;;5377336;26;86299;-50
2024/04/20 09:31:54;;;;;;;1.33;0.67;;;;;;;;;;5385043;26;87848;-54
2024/04/20 09:34:23;;;;;;;1.20;0.60;;;;;;;;;;5377026;26;86884;-50
2024/04/20 09:36:48;;;;;;;1.10;0.80;;;;;;;;;;5380957;26;85879;-51
2024/04/20 09:39:14;;;;;;;1.07;0.63;;;;;;;;;;5377508;26;87376;-51
2024/04/20 09:41:42;;;;;;;1.57;0.67;;;;;;;;;;5381701;26;86413;-52
2024/04/20 09:44:07;;;;;;;1.50;0.77;;;;;;;;;;5378349;26;85186;-50
2024/04/20 09:46:32;;;;;;;0.80;0.63;;;;;;;;;;5388332;25;87534;-55
2024/04/20 09:49:03;;;;;;;0.60;0.57;;;;;;;;;;5395925;25;85265;-52
2024/04/20 09:51:31;;;;;;;3.53;0.50;;;;;;;;;;5391374;26;85898;-53
2024/04/20 09:54:01;;;;;;;1.67;1.00;;;;;;;;;;5389693;26;86761;-50
2024/04/20 09:56:27;;;;;;;1.15;0.95;;;;;;;;;;5375779;26;86122;-48
2024/04/20 09:58:52;;;;;;;0.55;0.55;;;;;;;;;;5379803;26;85610;-53
2024/04/20 10:01:18;;;;;;;0.30;0.30;;;;;;;;;;5378318;25;86059;-53
2024/04/20 10:03:44;;;;;;;0.68;0.60;;;;;;;;;;5377723;26;85538;-51
2024/04/20 10:06:10;;;;;;;1.20;0.80;;;;;;;;;;5372194;26;87335;-54
2024/04/20 10:08:37;;;;;;;0.88;0.70;;;;;;;;;;5393896;26;85479;-50
2024/04/20 10:11:03;;;;;;;2.00;0.50;;;;;;;;;;5388585;25;85711;-52
2024/04/20 10:13:28;;;;;;;1.10;0.70;;;;;;;;;;5379227;26;85678;-48
2024/04/20 10:15:54;;;;;;;1.50;0.90;;;;;;;;;;5381880;26;85670;-53
2024/04/20 10:18:20;;;;;;;0.40;0.40;;;;;;;;;;5387465;25;87007;-52
2024/04/20 10:20:45;;;;;;;3.73;0.63;;;;;;;;;;5380207;25;86206;-52
2024/04/20 10:23:13;;;;;;;0.70;0.70;;;;;;;;;;5393093;26;85231;-51
2024/04/20 10:25:38;;;;;;;0.70;0.50;;;;;;;;;;5378641;26;85679;-47
2024/04/20 10:28:04;;;;;;;0.30;0.30;;;;;;;;;;5450205;25;85478;-53
2024/04/20 10:30:30;;;;;;;0.50;0.50;;;;;;;;;;5385764;26;85722;-51
2024/04/20 10:33:05;;;;;;;0.80;0.70;;;;;;;;;;5380801;26;86688;-47
2024/04/20 10:35:30;;;;;;;0.30;0.30;;;;;;;;;;5382043;26;84472;-49
2024/04/20 10:38:02;;;;;;;2.97;0.60;;;;;;;;;;5393385;26;85436;-51
2024/04/20 10:40:28;;;;;;;0.73;0.45;;;;;;;;;;5378776;26;86346;-53
2024/04/20 10:42:53;;;;;;;0.40;0.40;;;;;;;;;;5384990;25;86129;-53
2024/04/20 10:45:20;;;;;;;1.55;0.30;;;;;;;;;;5446943;25;89198;-52
2024/04/20 10:47:46;;;;;;;1.70;0.60;;;;;;;;;;5385746;26;86920;-51
2024/04/20 10:50:11;;;;;;;1.03;0.60;;;;;;;;;;5385371;25;85228;-50
2024/04/20 10:52:36;;;;;;;0.73;0.63;;;;;;;;;;5385985;25;85960;-50
2024/04/20 10:55:10;;;;;;;0.80;0.50;;;;;;;;;;5389192;26;85340;-52
2024/04/20 10:57:35;;;;;;;1.27;0.90;;;;;;;;;;5377332;26;85639;-51
2024/04/20 11:00:00;;;;;;;0.90;0.50;;;;;;;;;;5378050;25;86256;-51
2024/04/20 11:02:26;;;;;;;4.07;0.63;;;;;;;;;;5380992;26;85721;-51
2024/04/20 11:04:51;;;;;;;0.60;0.50;;;;;;;;;;5376821;26;85846;-52
2024/04/20 11:07:18;;;;;;;0.33;0.30;;;;;;;;;;5373446;26;89424;-53
2024/04/20 11:09:45;;;;;;;0.80;0.68;;;;;;;;;;5392321;25;85246;-53
2024/04/20 11:12:12;;;;;;;0.37;0.33;;;;;;;;;;5374308;26;85755;-49
2024/04/20 11:14:37;;;;;;;0.80;0.60;;;;;;;;;;5376972;26;85130;-53
2024/04/20 11:17:03;;;;;;;1.07;0.20;;;;;;;;;;5384291;26;86218;-52
2024/04/20 11:19:31;;;;;;;0.75;0.50;;;;;;;;;;5383967;25;85682;-53
2024/04/20 11:21:57;;;;;;;1.00;0.60;;;;;;;;;;5429899;25;85855;-51
2024/04/20 11:24:22;;;;;;;0.70;0.40;;;;;;;;;;5381892;26;87155;-48
2024/04/20 11:26:53;;;;;;;0.57;0.50;;;;;;;;;;5380537;26;85901;-54
2024/04/20 11:29:20;;;;;;;0.63;0.57;;;;;;;;;;5385465;25;85418;-50
2024/04/20 11:31:46;;;;;;;0.43;0.43;;;;;;;;;;5377283;26;86396;-49
2024/04/20 11:34:20;;;;;;;0.30;0.30;;;;;;;;;;5376306;26;85874;-50
2024/04/20 11:36:46;;;;;;;0.80;0.35;;;;;;;;;;5374537;26;85660;-55
2024/04/20 11:39:11;;;;;;;0.60;0.40;;;;;;;;;;5388506;26;86737;-51
2024/04/20 11:41:36;;;;;;;1.30;0.70;;;;;;;;;;5390256;26;85125;-53
2024/04/20 11:44:04;;;;;;;0.63;0.30;;;;;;;;;;5380834;26;85864;-52
2024/04/20 11:46:30;;;;;;;0.25;0.25;;;;;;;;;;5384390;25;86720;-51
2024/04/20 11:48:55;;;;;;;1.83;0.80;;;;;;;;;;5386392;25;84804;-54
2024/04/20 11:56:59;;;;;;;0.60;0.17;;;;;;;;;;5358385;26;85949;-51
2024/04/20 11:59:25;;;;;;;2.10;0.50;;;;;;;;;;5377990;26;89162;-49
2024/04/20 12:01:50;;;;;;;0.43;0.38;;;;;;;;;;5392228;26;85155;-47
2024/04/20 12:04:16;;;;;;;3.50;0.70;;;;;;;;;;5382922;26;87383;-53
2024/04/20 12:06:41;;;;;;;0.43;0.23;;;;;;;;;;5382638;25;86369;-48
2024/04/20 12:09:07;;;;;;;0.43;0.33;;;;;;;;;;5380046;26;85566;-51
2024/04/20 12:11:32;;;;;;;0.40;0.40;;;;;;;;;;5375832;26;87049;-51
2024/04/20 12:13:58;;;;;;;0.30;0.30;;;;;;;;;;5386855;25;86382;-50
2024/04/20 12:16:23;;;;;;;0.60;0.40;;;;;;;;;;5384190;26;85394;-52
2024/04/20 12:18:49;;;;;;;0.80;0.40;;;;;;;;;;5382979;25;86845;-51
2024/04/20 12:21:15;;;;;;;0.60;0.40;;;;;;;;;;5380315;26;86801;-49
2024/04/20 12:23:40;;;;;;;0.37;0.37;;;;;;;;;;5391801;26;87048;-52
2024/04/20 12:26:07;;;;;;;1.93;0.43;;;;;;;;;;5375894;26;86977;-54
2024/04/20 12:28:32;;;;;;;0.63;0.20;;;;;;;;;;5393917;26;85490;-51
2024/04/20 12:31:00;;;;;;;1.00;0.43;;;;;;;;;;5378776;25;88182;-51
2024/04/20 12:33:25;;;;;;;0.55;0.40;;;;;;;;;;5385390;26;85983;-48
2024/04/20 12:35:50;;;;;;;0.53;0.30;;;;;;;;;;5379692;26;85663;-51
2024/04/20 12:38:16;;;;;;;0.20;0.20;;;;;;;;;;5391031;26;85225;-50
2024/04/20 12:40:41;;;;;;;0.57;0.23;;;;;;;;;;5377856;26;85007;-50
2024/04/20 12:43:06;;;;;;;0.90;0.40;;;;;;;;;;5384443;26;88322;-51
2024/04/20 12:45:31;;;;;;;0.50;0.50;;;;;;;;;;5381826;26;86633;-51
2024/04/20 12:47:57;;;;;;;0.20;0.20;;;;;;;;;;5387391;26;85877;-50
2024/04/20 12:50:23;;;;;;;0.50;0.30;;;;;;;;;;5386982;26;85572;-52
2024/04/20 12:52:48;;;;;;;0.70;0.50;;;;;;;;;;5376335;26;85487;-53
2024/04/20 12:55:13;;;;;;;0.40;0.40;;;;;;;;;;5377263;26;85443;-50
2024/04/20 12:57:39;;;;;;;0.40;0.40;;;;;;;;;;5390342;26;86606;-49
2024/04/20 13:00:04;;;;;;;0.95;0.45;;;;;;;;;;5378871;26;85638;-51
2024/04/20 13:02:29;;;;;;;0.60;0.40;;;;;;;;;;5386992;26;85491;-51
2024/04/20 13:04:54;;;;;;;0.25;0.25;;;;;;;;;;5385594;25;86873;-48
2024/04/20 13:07:21;;;;;;;0.63;0.37;;;;;;;;;;5384321;26;85520;-53
2024/04/20 13:09:47;;;;;;;0.50;0.20;;;;;;;;;;5384039;25;86620;-54
2024/04/20 13:12:13;;;;;;;0.47;0.40;;;;;;;;;;5383945;26;87505;-52
2024/04/20 13:14:41;;;;;;;0.40;0.40;;;;;;;;;;5383847;26;85804;-51
2024/04/20 13:17:06;;;;;;;1.15;0.50;;;;;;;;;;5389360;25;85999;-51
2024/04/20 13:19:32;;;;;;;3.20;0.30;;;;;;;;;;5385509;26;87015;-52
2024/04/20 13:21:57;;;;;;;0.33;0.33;;;;;;;;;;5377289;26;86760;-50
2024/04/20 13:24:22;;;;;;;0.30;0.27;;;;;;;;;;5395158;26;86688;-49
2024/04/20 13:26:48;;;;;;;0.20;0.20;;;;;;;;;;5382027;26;84865;-49
2024/04/20 13:29:13;;;;;;;0.70;0.30;;;;;;;;;;5399153;25;85241;-53
2024/04/20 13:31:38;;;;;;;0.45;0.25;;;;;;;;;;5376639;26;87547;-50
2024/04/20 13:34:04;;;;;;;0.20;0.20;;;;;;;;;;5391271;26;86217;-52
2024/04/20 13:36:29;;;;;;;0.37;0.37;;;;;;;;;;5390014;25;86538;-50
2024/04/20 13:38:54;;;;;;;1.90;0.73;;;;;;;;;;5394710;26;86908;-53
2024/04/20 13:41:19;;;;;;;0.83;0.43;;;;;;;;;;5371402;26;86207;-53
2024/04/20 13:43:44;;;;;;;0.40;0.30;;;;;;;;;;5376925;26;85801;-48
2024/04/20 13:46:11;;;;;;;0.60;0.20;;;;;;;;;;5381083;25;85521;-48
2024/04/20 13:48:40;;;;;;;0.20;0.20;;;;;;;;;;5380444;26;86792;-49
2024/04/20 13:51:05;;;;;;;0.30;0.30;;;;;;;;;;5378887;26;86716;-50
2024/04/20 13:53:31;;;;;;;0.40;0.20;;;;;;;;;;5384883;26;85718;-48
2024/04/20 13:55:57;;;;;;;0.30;0.30;;;;;;;;;;5373229;26;85192;-47
2024/04/20 13:58:22;;;;;;;0.60;0.38;;;;;;;;;;5381414;25;86777;-50
2024/04/20 14:00:47;;;;;;;0.45;0.40;;;;;;;;;;5381408;25;85298;-52
2024/04/20 14:03:13;;;;;;;2.80;0.60;;;;;;;;;;5392609;26;87104;-48
2024/04/20 14:05:44;;;;;;;0.77;0.30;;;;;;;;;;5377256;26;84903;-51
2024/04/20 14:08:11;;;;;;;0.20;0.20;;;;;;;;;;5388169;26;85490;-50
2024/04/20 14:10:36;;;;;;;0.20;0.20;;;;;;;;;;5395918;25;85738;-54
2024/04/20 14:13:02;;;;;;;0.53;0.50;;;;;;;;;;5391152;26;85661;-49
2024/04/20 14:15:27;;;;;;;0.40;0.30;;;;;;;;;;5394789;25;86806;-50
2024/04/20 14:17:52;;;;;;;0.20;0.20;;;;;;;;;;5373775;26;87226;-49
2024/04/20 14:20:19;;;;;;;0.23;0.23;;;;;;;;;;5389708;26;85085;-51
2024/04/20 14:22:44;;;;;;;0.28;0.20;;;;;;;;;;5378439;26;85914;-49
2024/04/20 14:25:09;;;;;;;0.70;0.40;;;;;;;;;;5397297;26;85425;-50
2024/04/20 14:27:34;;;;;;;0.40;0.30;;;;;;;;;;5377761;26;85600;-49
2024/04/20 14:30:00;;;;;;;0.20;0.20;;;;;;;;;;5382593;25;86928;-50
2024/04/20 14:32:26;;;;;;;0.20;0.17;;;;;;;;;;5378586;26;86008;-49
2024/04/20 14:34:52;;;;;;;0.15;0.15;;;;;;;;;;5388509;26;86684;-51
2024/04/20 14:37:17;;;;;;;0.20;0.20;;;;;;;;;;5374491;26;88443;-53
2024/04/20 14:39:42;;;;;;;0.30;0.23;;;;;;;;;;5389782;26;84396;-48